createdAt,value
2018-03-25T00:01:49.293Z,2.70
2018-03-25T00:04:17.586Z,2.70
2018-03-25T00:06:45.105Z,2.70
2018-03-25T00:09:12.619Z,2.70
2018-03-25T00:11:40.149Z,2.60
2018-03-25T00:14:07.641Z,2.60
2018-03-25T00:16:35.164Z,2.60
2018-03-25T00:19:02.694Z,2.60
2018-03-25T00:21:30.187Z,2.60
2018-03-25T00:23:57.695Z,2.50
2018-03-25T00:26:25.183Z,2.40
2018-03-25T00:28:52.688Z,2.40
2018-03-25T00:31:20.171Z,2.40
2018-03-25T00:33:47.651Z,2.30
2018-03-25T00:36:15.137Z,2.30
2018-03-25T00:38:42.628Z,2.30
2018-03-25T00:41:10.126Z,2.20
2018-03-25T00:43:38.380Z,2.30
2018-03-25T00:46:05.843Z,2.30
2018-03-25T00:48:33.379Z,2.30
2018-03-25T00:51:00.889Z,2.30
2018-03-25T00:53:29.171Z,2.30
2018-03-25T00:55:57.259Z,2.40
2018-03-25T00:58:24.560Z,2.40
2018-03-25T01:00:52.061Z,2.30
2018-03-25T01:03:20.376Z,2.30
2018-03-25T01:05:47.851Z,2.30
2018-03-25T01:08:15.322Z,2.30
2018-03-25T01:10:42.817Z,2.20
2018-03-25T01:13:10.293Z,2.10
2018-03-25T01:15:43.314Z,2.10
2018-03-25T01:18:10.786Z,1.90
2018-03-25T01:20:38.288Z,2.00
2018-03-25T01:23:05.774Z,2.00
2018-03-25T01:25:33.273Z,1.90
2018-03-25T01:28:00.763Z,1.90
2018-03-25T01:30:28.244Z,1.90
2018-03-25T01:32:55.727Z,2.00
2018-03-25T01:35:24.027Z,2.00
2018-03-25T01:37:51.534Z,2.00
2018-03-25T01:40:19.064Z,2.00
2018-03-25T01:42:46.592Z,1.90
2018-03-25T01:45:14.087Z,1.90
2018-03-25T01:47:41.603Z,1.90
2018-03-25T01:50:09.092Z,1.70
2018-03-25T01:52:37.368Z,1.60
2018-03-25T01:55:05.627Z,1.60
2018-03-25T01:57:33.112Z,1.60
2018-03-25T02:00:01.379Z,1.70
2018-03-25T02:02:28.898Z,1.60
2018-03-25T02:04:56.401Z,1.60
2018-03-25T02:07:23.914Z,1.60
2018-03-25T02:09:51.186Z,1.70
2018-03-25T02:12:18.672Z,1.70
2018-03-25T02:14:46.177Z,1.70
2018-03-25T02:17:13.666Z,1.80
2018-03-25T02:19:41.156Z,1.90
2018-03-25T02:22:08.636Z,2.00
2018-03-25T02:24:36.125Z,2.10
2018-03-25T02:27:04.429Z,2.20
2018-03-25T02:29:31.948Z,2.20
2018-03-25T02:31:59.513Z,2.30
2018-03-25T02:34:27.033Z,2.30
2018-03-25T02:36:54.534Z,2.40
2018-03-25T02:39:22.118Z,2.40
2018-03-25T02:41:49.759Z,2.50
2018-03-25T02:44:17.278Z,2.50
2018-03-25T02:46:44.780Z,2.50
2018-03-25T02:49:12.269Z,2.60
2018-03-25T02:51:39.772Z,2.60
2018-03-25T02:54:07.295Z,2.60
2018-03-25T02:56:35.097Z,2.70
2018-03-25T02:59:02.615Z,2.70
2018-03-25T03:01:30.117Z,2.70
2018-03-25T03:03:57.616Z,2.80
2018-03-25T03:06:25.135Z,2.80
2018-03-25T03:08:52.652Z,2.90
2018-03-25T03:11:20.136Z,3.00
2018-03-25T03:13:47.659Z,3.00
2018-03-25T03:16:15.954Z,3.00
2018-03-25T03:18:43.497Z,3.00
2018-03-25T03:21:11.013Z,3.00
2018-03-25T03:23:38.501Z,3.00
2018-03-25T03:26:06.006Z,2.90
2018-03-25T03:28:33.688Z,3.00
2018-03-25T03:31:01.189Z,2.90
2018-03-25T03:33:28.681Z,2.90
2018-03-25T03:35:55.997Z,2.90
2018-03-25T03:38:23.487Z,2.90
2018-03-25T03:40:50.972Z,2.90
2018-03-25T03:43:18.484Z,2.80
2018-03-25T03:45:45.963Z,2.90
2018-03-25T03:48:13.467Z,3.00
2018-03-25T03:50:40.956Z,2.90
2018-03-25T03:53:08.437Z,2.90
2018-03-25T03:55:35.920Z,2.90
2018-03-25T03:58:03.989Z,2.90
2018-03-25T04:00:31.491Z,2.90
2018-03-25T04:02:59.011Z,3.00
2018-03-25T04:05:26.559Z,2.90
2018-03-25T04:07:54.082Z,2.90
2018-03-25T04:10:21.589Z,3.00
2018-03-25T04:12:49.073Z,2.90
2018-03-25T04:15:16.566Z,2.90
2018-03-25T04:17:44.052Z,2.90
2018-03-25T04:20:11.547Z,2.90
2018-03-25T04:22:39.045Z,2.80
2018-03-25T04:25:06.536Z,2.80
2018-03-25T04:27:34.025Z,2.70
2018-03-25T04:30:01.542Z,2.70
2018-03-25T04:32:29.036Z,2.70
2018-03-25T04:34:57.086Z,2.60
2018-03-25T04:37:25.378Z,2.60
2018-03-25T04:39:52.890Z,2.50
2018-03-25T04:42:20.400Z,2.50
2018-03-25T04:44:47.915Z,2.40
2018-03-25T04:47:15.656Z,2.40
2018-03-25T04:49:43.326Z,2.30
2018-03-25T04:52:10.797Z,2.30
2018-03-25T04:54:38.292Z,2.30
2018-03-25T04:57:06.560Z,2.20
2018-03-25T04:59:33.826Z,2.20
2018-03-25T05:02:01.308Z,2.10
2018-03-25T05:04:29.593Z,2.10
2018-03-25T05:06:57.105Z,2.10
2018-03-25T05:09:24.583Z,2.00
2018-03-25T05:11:52.092Z,2.00
2018-03-25T05:14:19.612Z,1.90
2018-03-25T05:16:47.075Z,1.90
2018-03-25T05:19:14.565Z,1.80
2018-03-25T05:21:42.053Z,1.80
2018-03-25T05:24:09.532Z,1.80
2018-03-25T05:26:37.028Z,1.80
2018-03-25T05:29:04.508Z,1.70
2018-03-25T05:31:32.019Z,1.70
2018-03-25T05:33:59.524Z,1.80
2018-03-25T05:36:26.993Z,1.90
2018-03-25T05:38:54.510Z,1.90
2018-03-25T05:41:22.001Z,2.00
2018-03-25T05:43:49.493Z,2.00
2018-03-25T05:46:17.766Z,2.20
2018-03-25T05:48:46.037Z,2.30
2018-03-25T05:51:13.536Z,2.20
2018-03-25T05:53:41.023Z,2.30
2018-03-25T05:56:08.351Z,2.40
2018-03-25T05:58:35.835Z,2.40
2018-03-25T06:01:03.082Z,2.50
2018-03-25T06:03:30.580Z,2.70
2018-03-25T06:05:58.077Z,2.80
2018-03-25T06:08:25.581Z,2.80
2018-03-25T06:10:53.068Z,2.90
2018-03-25T06:13:20.573Z,3.10
2018-03-25T06:15:48.853Z,3.20
2018-03-25T06:18:16.509Z,3.20
2018-03-25T06:20:44.018Z,3.20
2018-03-25T06:23:11.725Z,3.30
2018-03-25T06:25:39.222Z,3.40
2018-03-25T06:28:07.488Z,3.70
2018-03-25T06:30:34.990Z,3.60
2018-03-25T06:33:02.519Z,3.60
2018-03-25T06:35:30.799Z,3.50
2018-03-25T06:37:59.075Z,3.60
2018-03-25T06:40:26.743Z,3.60
2018-03-25T06:42:55.010Z,3.90
2018-03-25T06:45:22.517Z,3.90
2018-03-25T06:47:50.017Z,3.90
2018-03-25T06:50:17.529Z,3.90
2018-03-25T06:52:45.010Z,4.00
2018-03-25T06:55:12.534Z,4.10
2018-03-25T06:57:40.085Z,4.10
2018-03-25T07:00:07.600Z,4.20
2018-03-25T07:02:35.116Z,4.20
2018-03-25T07:05:02.640Z,4.20
2018-03-25T07:07:30.149Z,4.30
2018-03-25T07:09:57.666Z,4.50
2018-03-25T07:12:25.147Z,4.50
2018-03-25T07:14:52.639Z,4.60
2018-03-25T07:17:21.341Z,4.70
2018-03-25T07:19:48.836Z,4.80
2018-03-25T07:22:16.368Z,4.90
2018-03-25T07:24:44.679Z,5.10
2018-03-25T07:27:12.159Z,5.10
2018-03-25T07:29:39.692Z,5.20
2018-03-25T07:32:07.177Z,5.20
2018-03-25T07:34:34.730Z,5.30
2018-03-25T07:37:02.280Z,5.30
2018-03-25T07:39:31.575Z,5.50
2018-03-25T07:41:59.103Z,5.50
2018-03-25T07:44:26.589Z,5.60
2018-03-25T07:46:54.097Z,5.70
2018-03-25T07:49:21.588Z,5.80
2018-03-25T07:51:49.108Z,5.90
2018-03-25T07:54:17.560Z,6.10
2018-03-25T07:56:45.088Z,6.10
2018-03-25T07:59:12.608Z,6.10
2018-03-25T08:01:40.898Z,6.40
2018-03-25T08:04:08.423Z,6.40
2018-03-25T08:06:35.956Z,6.50
2018-03-25T08:09:03.044Z,6.50
2018-03-25T08:11:30.549Z,6.40
2018-03-25T08:13:58.035Z,6.60
2018-03-25T08:16:25.526Z,6.80
2018-03-25T08:18:53.038Z,6.90
2018-03-25T08:21:20.579Z,7.00
2018-03-25T08:23:48.086Z,7.10
2018-03-25T08:26:15.590Z,7.20
2018-03-25T08:28:44.771Z,7.40
2018-03-25T08:31:12.281Z,7.40
2018-03-25T08:33:39.797Z,7.50
2018-03-25T08:36:07.103Z,7.60
2018-03-25T08:38:35.364Z,7.90
2018-03-25T08:41:02.872Z,7.90
2018-03-25T08:43:30.398Z,8.10
2018-03-25T08:45:57.904Z,8.10
2018-03-25T08:48:25.447Z,8.30
2018-03-25T08:50:53.758Z,8.40
2018-03-25T08:53:21.321Z,8.30
2018-03-25T08:55:48.836Z,8.40
2018-03-25T08:58:16.192Z,8.40
2018-03-25T09:00:43.730Z,8.50
2018-03-25T09:03:11.266Z,8.60
2018-03-25T09:05:38.743Z,8.70
2018-03-25T09:08:06.298Z,8.70
2018-03-25T09:10:33.844Z,8.90
2018-03-25T09:13:02.091Z,9.00
2018-03-25T09:15:29.587Z,9.00
2018-03-25T09:17:57.093Z,9.00
2018-03-25T09:20:25.401Z,9.20
2018-03-25T09:22:52.907Z,9.20
2018-03-25T09:25:20.444Z,9.40
2018-03-25T09:27:48.715Z,9.30
2018-03-25T09:30:17.070Z,9.70
2018-03-25T09:32:44.696Z,9.60
2018-03-25T09:35:12.214Z,9.80
2018-03-25T09:37:39.759Z,9.80
2018-03-25T09:40:07.294Z,9.90
2018-03-25T09:42:34.845Z,9.90
2018-03-25T09:45:02.390Z,9.90
2018-03-25T09:47:30.733Z,10.20
2018-03-25T09:49:59.090Z,10.30
2018-03-25T09:52:26.628Z,10.30
2018-03-25T09:54:54.915Z,10.40
2018-03-25T09:57:23.171Z,10.30
2018-03-25T09:59:50.665Z,10.20
2018-03-25T10:02:23.785Z,10.40
2018-03-25T10:04:51.383Z,10.30
2018-03-25T10:07:19.050Z,10.10
2018-03-25T10:09:46.586Z,10.30
2018-03-25T10:12:14.098Z,10.10
2018-03-25T10:14:42.463Z,10.00
2018-03-25T10:17:09.970Z,9.90
2018-03-25T10:19:38.269Z,10.00
2018-03-25T10:22:06.758Z,10.20
2018-03-25T10:24:34.043Z,10.20
2018-03-25T10:27:01.627Z,10.20
2018-03-25T10:29:29.133Z,10.10
2018-03-25T10:31:56.693Z,10.10
2018-03-25T10:34:24.260Z,9.90
2018-03-25T10:36:51.807Z,10.00
2018-03-25T10:39:20.138Z,10.20
2018-03-25T10:41:47.683Z,10.20
2018-03-25T10:44:15.223Z,10.20
2018-03-25T10:46:42.751Z,10.30
2018-03-25T10:49:10.241Z,10.30
2018-03-25T10:51:37.776Z,10.40
2018-03-25T10:54:05.310Z,10.50
2018-03-25T10:56:32.818Z,10.60
2018-03-25T10:59:00.328Z,10.70
2018-03-25T11:01:27.899Z,10.70
2018-03-25T11:03:55.432Z,10.80
2018-03-25T11:06:23.705Z,11.10
2018-03-25T11:08:52.009Z,11.10
2018-03-25T11:11:19.537Z,11.00
2018-03-25T11:13:47.067Z,10.90
2018-03-25T11:16:14.574Z,11.10
2018-03-25T11:18:42.076Z,11.10
2018-03-25T11:21:09.560Z,10.90
2018-03-25T11:23:36.855Z,11.10
2018-03-25T11:26:04.376Z,11.00
2018-03-25T11:28:31.896Z,11.20
2018-03-25T11:30:59.205Z,11.20
2018-03-25T11:33:26.761Z,11.10
2018-03-25T11:35:54.391Z,11.20
2018-03-25T11:38:21.880Z,11.40
2018-03-25T11:40:49.382Z,11.40
2018-03-25T11:43:16.892Z,11.40
2018-03-25T11:45:44.396Z,11.60
2018-03-25T11:48:11.888Z,11.50
2018-03-25T11:50:39.398Z,11.50
2018-03-25T11:53:06.901Z,11.70
2018-03-25T11:55:34.416Z,11.50
2018-03-25T11:58:01.936Z,11.70
2018-03-25T12:00:29.457Z,11.80
2018-03-25T12:02:56.976Z,11.70
2018-03-25T12:05:25.223Z,11.70
2018-03-25T12:07:52.747Z,11.70
2018-03-25T12:10:20.254Z,11.70
2018-03-25T12:12:47.773Z,11.70
2018-03-25T12:15:15.294Z,11.90
2018-03-25T12:17:42.842Z,11.80
2018-03-25T12:20:10.179Z,12.10
2018-03-25T12:22:37.683Z,12.00
2018-03-25T12:25:05.203Z,12.00
2018-03-25T12:27:32.696Z,11.80
2018-03-25T12:30:00.189Z,11.80
2018-03-25T12:32:27.694Z,12.10
2018-03-25T12:34:55.173Z,12.20
2018-03-25T12:37:23.583Z,12.10
2018-03-25T12:39:51.091Z,12.00
2018-03-25T12:42:18.632Z,12.00
2018-03-25T12:44:46.311Z,12.20
2018-03-25T12:47:13.984Z,12.20
2018-03-25T12:49:41.477Z,12.10
2018-03-25T12:52:08.978Z,12.30
2018-03-25T12:54:36.492Z,12.20
2018-03-25T12:57:04.040Z,12.10
2018-03-25T12:59:31.555Z,12.10
2018-03-25T13:01:59.849Z,11.90
2018-03-25T13:04:27.384Z,11.80
2018-03-25T13:06:55.010Z,11.80
2018-03-25T13:09:22.798Z,11.80
2018-03-25T13:11:51.122Z,11.50
2018-03-25T13:14:19.398Z,11.60
2018-03-25T13:16:46.902Z,11.50
2018-03-25T13:19:14.389Z,11.50
2018-03-25T13:21:41.871Z,11.60
2018-03-25T13:24:09.378Z,11.60
2018-03-25T13:26:37.652Z,11.60
2018-03-25T13:29:05.150Z,11.60
2018-03-25T13:31:32.646Z,11.40
2018-03-25T13:34:00.135Z,11.50
2018-03-25T13:36:28.440Z,11.40
2018-03-25T13:38:55.742Z,11.40
2018-03-25T13:41:23.230Z,11.60
2018-03-25T13:43:50.735Z,11.60
2018-03-25T13:46:18.252Z,11.60
2018-03-25T13:48:45.766Z,11.70
2018-03-25T13:51:13.281Z,11.60
2018-03-25T13:53:40.799Z,11.60
2018-03-25T13:56:08.289Z,11.60
2018-03-25T13:58:35.598Z,11.60
2018-03-25T14:01:03.104Z,11.60
2018-03-25T14:03:30.664Z,11.60
2018-03-25T14:05:57.908Z,11.70
2018-03-25T14:08:25.435Z,11.80
2018-03-25T14:10:52.940Z,11.60
2018-03-25T14:13:20.470Z,11.40
2018-03-25T14:15:48.026Z,11.30
2018-03-25T14:18:15.531Z,11.50
2018-03-25T14:20:43.087Z,11.80
2018-03-25T14:23:10.630Z,11.90
2018-03-25T14:25:38.320Z,12.00
2018-03-25T14:28:05.866Z,12.20
2018-03-25T14:30:34.167Z,12.30
2018-03-25T14:33:02.491Z,12.10
2018-03-25T14:35:29.978Z,12.10
2018-03-25T14:37:58.275Z,12.00
2018-03-25T14:40:25.768Z,12.00
2018-03-25T14:42:53.298Z,12.20
2018-03-25T14:45:20.834Z,12.30
2018-03-25T14:47:48.350Z,12.30
2018-03-25T14:50:15.915Z,12.40
2018-03-25T14:52:43.438Z,12.00
2018-03-25T14:55:10.944Z,11.90
2018-03-25T14:57:38.486Z,11.80
2018-03-25T15:00:05.767Z,11.60
2018-03-25T15:02:33.289Z,11.60
2018-03-25T15:05:00.791Z,11.50
2018-03-25T15:07:28.312Z,11.50
2018-03-25T15:09:55.987Z,11.50
2018-03-25T15:12:23.547Z,11.20
2018-03-25T15:14:51.934Z,11.10
2018-03-25T15:17:19.443Z,11.00
2018-03-25T15:19:46.954Z,11.10
2018-03-25T15:22:14.450Z,11.00
2018-03-25T15:24:41.981Z,11.10
2018-03-25T15:27:09.461Z,11.00
2018-03-25T15:29:36.955Z,11.10
2018-03-25T15:32:04.564Z,11.00
2018-03-25T15:34:32.061Z,10.90
2018-03-25T15:37:00.339Z,10.90
2018-03-25T15:39:28.640Z,10.70
2018-03-25T15:41:56.172Z,10.70
2018-03-25T15:44:23.681Z,10.70
2018-03-25T15:46:51.203Z,10.50
2018-03-25T15:49:18.718Z,10.50
2018-03-25T15:51:46.231Z,10.50
2018-03-25T15:54:13.714Z,10.60
2018-03-25T15:56:41.271Z,10.40
2018-03-25T15:59:08.922Z,10.30
2018-03-25T16:01:36.177Z,10.30
2018-03-25T16:04:03.684Z,10.20
2018-03-25T16:06:31.189Z,10.10
2018-03-25T16:08:58.690Z,10.10
2018-03-25T16:11:26.174Z,10.00
2018-03-25T16:13:54.016Z,10.00
2018-03-25T16:16:21.518Z,10.00
2018-03-25T16:18:49.016Z,10.00
2018-03-25T16:21:16.521Z,10.00
2018-03-25T16:23:43.998Z,9.90
2018-03-25T16:26:11.516Z,9.70
2018-03-25T16:28:39.012Z,9.60
2018-03-25T16:31:06.522Z,9.50
2018-03-25T16:33:34.221Z,9.40
2018-03-25T16:36:02.524Z,9.30
2018-03-25T16:38:30.825Z,9.30
2018-03-25T16:40:58.307Z,9.30
2018-03-25T16:43:25.816Z,9.30
2018-03-25T16:45:54.086Z,9.20
2018-03-25T16:48:22.351Z,9.20
2018-03-25T16:50:49.861Z,9.20
2018-03-25T16:53:17.411Z,9.20
2018-03-25T16:55:45.700Z,9.00
2018-03-25T16:58:14.030Z,9.10
2018-03-25T17:00:42.338Z,9.00
2018-03-25T17:03:09.849Z,9.00
2018-03-25T17:05:37.185Z,9.00
2018-03-25T17:08:04.442Z,8.90
2018-03-25T17:10:31.745Z,9.00
2018-03-25T17:12:59.264Z,8.90
2018-03-25T17:15:26.761Z,8.80
2018-03-25T17:17:55.045Z,8.80
2018-03-25T17:20:22.569Z,8.70
2018-03-25T17:22:50.048Z,8.80
2018-03-25T17:25:17.543Z,8.70
2018-03-25T17:27:45.083Z,8.70
2018-03-25T17:30:12.585Z,8.60
2018-03-25T17:32:40.111Z,8.60
2018-03-25T17:35:07.621Z,8.50
2018-03-25T17:37:35.100Z,8.50
2018-03-25T17:40:03.381Z,8.40
2018-03-25T17:42:30.930Z,8.30
2018-03-25T17:44:58.444Z,8.30
2018-03-25T17:47:25.957Z,8.20
2018-03-25T17:49:53.507Z,8.10
2018-03-25T17:52:21.030Z,8.00
2018-03-25T17:54:48.538Z,7.90
2018-03-25T17:57:16.068Z,7.90
2018-03-25T17:59:45.312Z,7.70
2018-03-25T18:02:12.841Z,7.70
2018-03-25T18:04:40.368Z,7.70
2018-03-25T18:07:08.658Z,7.50
2018-03-25T18:09:36.952Z,7.50
2018-03-25T18:12:05.254Z,7.30
2018-03-25T18:14:32.777Z,7.30
2018-03-25T18:17:00.285Z,7.30
2018-03-25T18:19:27.793Z,7.20
2018-03-25T18:21:55.286Z,7.10
2018-03-25T18:24:22.915Z,7.00
2018-03-25T18:26:50.754Z,6.90
2018-03-25T18:29:18.259Z,6.80
2018-03-25T18:31:45.784Z,6.70
2018-03-25T18:34:13.311Z,6.70
2018-03-25T18:36:40.818Z,6.60
2018-03-25T18:39:09.180Z,6.40
2018-03-25T18:41:36.723Z,6.50
2018-03-25T18:44:04.256Z,6.40
2018-03-25T18:46:32.589Z,6.20
2018-03-25T18:49:00.160Z,6.20
2018-03-25T18:51:27.689Z,6.20
2018-03-25T18:53:55.994Z,6.10
2018-03-25T18:56:23.487Z,6.00
2018-03-25T18:58:50.991Z,6.00
2018-03-25T19:01:18.490Z,5.90
2018-03-25T19:03:46.015Z,5.80
2018-03-25T19:06:13.618Z,5.80
2018-03-25T19:08:41.127Z,5.70
2018-03-25T19:11:08.678Z,5.60
2018-03-25T19:13:36.160Z,5.60
2018-03-25T19:16:03.420Z,5.50
2018-03-25T19:18:31.757Z,5.50
2018-03-25T19:20:59.279Z,5.40
2018-03-25T19:23:27.637Z,5.40
2018-03-25T19:25:55.123Z,5.40
2018-03-25T19:28:22.730Z,5.30
2018-03-25T19:30:50.254Z,5.30
2018-03-25T19:33:18.553Z,5.20
2018-03-25T19:35:46.140Z,5.20
2018-03-25T19:38:13.799Z,5.20
2018-03-25T19:40:41.479Z,5.20
2018-03-25T19:43:09.176Z,5.10
2018-03-25T19:45:36.661Z,5.10
2018-03-25T19:48:03.943Z,5.00
2018-03-25T19:50:31.591Z,5.00
2018-03-25T19:53:03.269Z,4.90
2018-03-25T19:55:30.809Z,4.90
2018-03-25T19:57:58.322Z,4.80
2018-03-25T20:00:25.850Z,4.70
2018-03-25T20:02:53.356Z,4.70
2018-03-25T20:05:20.671Z,4.60
2018-03-25T20:07:48.995Z,4.60
2018-03-25T20:10:16.528Z,4.60
2018-03-25T20:12:47.909Z,4.60
2018-03-25T20:17:59.702Z,4.60
2018-03-25T20:20:27.244Z,4.40
2018-03-25T20:22:54.745Z,4.40
2018-03-25T20:25:22.483Z,4.30
2018-03-25T20:27:50.005Z,4.30
2018-03-25T20:30:17.550Z,4.20
2018-03-25T20:32:45.097Z,4.20
2018-03-25T20:35:12.612Z,4.30
2018-03-25T20:37:40.671Z,4.50
2018-03-25T20:40:07.940Z,4.40
2018-03-25T20:42:35.451Z,4.50
2018-03-25T20:45:02.956Z,4.60
2018-03-25T20:47:30.239Z,4.60
2018-03-25T20:49:57.728Z,4.60
2018-03-25T20:52:25.246Z,4.60
2018-03-25T20:54:52.747Z,4.50
2018-03-25T20:57:20.279Z,4.40
2018-03-25T20:59:47.779Z,4.20
2018-03-25T21:02:16.077Z,4.00
2018-03-25T21:04:43.593Z,4.00
2018-03-25T21:07:11.078Z,4.00
2018-03-25T21:09:39.356Z,3.90
2018-03-25T21:12:07.666Z,3.80
2018-03-25T21:14:35.177Z,3.80
2018-03-25T21:17:02.671Z,3.80
2018-03-25T21:19:33.367Z,3.80
2018-03-25T21:22:00.886Z,3.70
2018-03-25T21:24:28.451Z,3.70
2018-03-25T21:26:56.247Z,3.60
2018-03-25T21:29:23.795Z,3.50
2018-03-25T21:31:51.308Z,3.50
2018-03-25T21:34:18.837Z,3.40
2018-03-25T21:36:46.370Z,3.50
2018-03-25T21:39:13.860Z,3.50
2018-03-25T21:41:41.361Z,3.50
2018-03-25T21:44:08.933Z,3.40
2018-03-25T21:46:36.429Z,3.30
2018-03-25T21:49:03.964Z,3.30
2018-03-25T21:51:31.548Z,3.20
2018-03-25T21:53:59.095Z,3.30
2018-03-25T21:56:26.579Z,3.20
2018-03-25T21:58:54.111Z,3.20
2018-03-25T22:01:21.597Z,3.20
2018-03-25T22:03:49.100Z,3.20
2018-03-25T22:06:16.617Z,3.10
2018-03-25T22:08:44.947Z,3.10
2018-03-25T22:11:12.464Z,3.10
2018-03-25T22:13:40.741Z,3.00
2018-03-25T22:16:08.287Z,3.00
2018-03-25T22:18:41.478Z,3.00
2018-03-25T22:21:09.016Z,2.90
2018-03-25T22:23:36.517Z,2.90
2018-03-25T22:26:03.792Z,2.90
2018-03-25T22:28:32.067Z,2.90
2018-03-25T22:31:00.362Z,2.90
2018-03-25T22:33:27.838Z,2.90
2018-03-25T22:35:55.342Z,3.00
2018-03-25T22:38:22.843Z,2.90
2018-03-25T22:40:50.352Z,3.00
2018-03-25T22:43:17.824Z,2.90
2018-03-25T22:45:45.316Z,2.90
2018-03-25T22:48:12.809Z,2.90
2018-03-25T22:50:40.295Z,2.90
2018-03-25T22:53:07.797Z,2.80
2018-03-25T22:55:35.287Z,2.70
2018-03-25T22:58:03.569Z,2.60
2018-03-25T23:00:31.108Z,2.60
2018-03-25T23:02:58.593Z,2.60
2018-03-25T23:05:26.078Z,2.50
2018-03-25T23:07:53.590Z,2.40
2018-03-25T23:10:20.934Z,2.40
2018-03-25T23:12:48.439Z,2.40
2018-03-25T23:15:15.926Z,2.40
2018-03-25T23:17:43.467Z,2.30
2018-03-25T23:20:11.776Z,2.30
2018-03-25T23:22:40.075Z,2.30
2018-03-25T23:25:07.780Z,2.30
2018-03-25T23:27:35.295Z,2.30
2018-03-25T23:30:02.808Z,2.30
2018-03-25T23:32:31.090Z,2.20
2018-03-25T23:34:59.359Z,2.20
2018-03-25T23:37:26.858Z,2.20
2018-03-25T23:39:55.148Z,2.40
2018-03-25T23:42:22.686Z,2.40
2018-03-25T23:44:50.977Z,2.30
2018-03-25T23:47:18.529Z,2.30
2018-03-25T23:49:46.826Z,2.20
2018-03-25T23:52:15.108Z,2.10
2018-03-25T23:54:42.644Z,2.10
2018-03-25T23:57:10.153Z,2.00
2018-03-25T23:59:37.651Z,2.10
